Aérodrome :







RETROUVEZ-NOUS SUR...

 
LOGIN :

S'inscrire | Disclaimer

   EN    FR    IT 

 









Légende :    VFR   VFR Marginal   IFR   IFR Intensif   IFR Très Intensif
Visi : 
Plafond : 
>= 8 km
>= 3000ft
5 à 8 km
1000 à 3000 ft
1500m à 5 km
500 à 1000 ft
800 à 1500m
200 à 500 ft
< 800m
< 200 ft
Symboles :   Orages  Brouillard  Fortes neiges  Fortes précipitations  Vent > 20 kt






- Altitude de l'aérodrome : 488 ft
- Code IATA : EEN


KEEN - Dillant Hopkins

DERNIER METAR :
  • 090356Z AUTO 00000KT 1/4SM FG OVC001 21/21 A2997 RMK AO2 SLP150 P0002 T02060206 $

METARs EXPIRÉS :
  • 090340Z AUTO 00000KT 1/4SM FG OVC001 21/21 A2997 RMK AO2 P0001 $
  • 090323Z AUTO 00000KT 1/2SM FG OVC001 21/21 A2997 RMK AO2 P0001 $
  • 090319Z AUTO 00000KT 1SM BR OVC001 21/21 A2997 RMK AO2 P0001 $
  • 090256Z AUTO 00000KT 6SM BR SCT001 21/21 A2996 RMK AO2 SLP147 P0002 60009 T02110206 53004 $
  • 090156Z AUTO 00000KT 8SM FEW001 21/21 A2996 RMK AO2 SLP147 P0003 T02110211 $

TAF N/A
FIR KZBW / Amérique du Nord



MET'MAP, la Météo Aéronautique d'un coup d'oeil ! - Copyright ORBIFLY Décembre 2007 - Disclaimer

ORBIFLY MET'MAP TEAM :

Programmation & Développement : Alexandra Zaïnal
Sur une idée originale de : Baudouin d'Aumeries
Assistance à la programmation : Marc-Olivier Méhu
Soutien technique & logistique : Manuel Goepfert

Contact : metmap@orbifly.com




SOURCES & CREDITS :

   NOAA